sensor_id;sensor_type;location;lat;lon;timestamp;temperature;humidity
5492;DHT22;2768;53.540;10.224;2022-09-01T00:03:24;15.70;19.10
5492;DHT22;2768;53.540;10.224;2022-09-01T00:09:22;16.00;10.10
5492;DHT22;2768;53.540;10.224;2022-09-01T00:15:15;16.00;7.60
5492;DHT22;2768;53.540;10.224;2022-09-01T00:21:09;16.00;11.10
5492;DHT22;2768;53.540;10.224;2022-09-01T00:27:04;15.80;11.00
5492;DHT22;2768;53.540;10.224;2022-09-01T00:32:58;15.50;10.80
5492;DHT22;2768;53.540;10.224;2022-09-01T00:38:51;15.10;22.20
5492;DHT22;2768;53.540;10.224;2022-09-01T00:44:46;15.40;30.50
5492;DHT22;2768;53.540;10.224;2022-09-01T00:50:41;15.40;23.90
5492;DHT22;2768;53.540;10.224;2022-09-01T00:56:44;15.20;23.40
5492;DHT22;2768;53.540;10.224;2022-09-01T01:02:51;15.40;25.80
5492;DHT22;2768;53.540;10.224;2022-09-01T01:08:48;15.20;29.90
5492;DHT22;2768;53.540;10.224;2022-09-01T01:14:51;15.00;31.70
5492;DHT22;2768;53.540;10.224;2022-09-01T01:20:47;15.20;31.10
5492;DHT22;2768;53.540;10.224;2022-09-01T01:27:00;14.80;36.50
5492;DHT22;2768;53.540;10.224;2022-09-01T01:32:54;14.40;66.10
5492;DHT22;2768;53.540;10.224;2022-09-01T01:38:49;14.60;63.60
5492;DHT22;2768;53.540;10.224;2022-09-01T01:44:45;14.70;68.00
5492;DHT22;2768;53.540;10.224;2022-09-01T01:50:40;15.10;54.70
5492;DHT22;2768;53.540;10.224;2022-09-01T01:56:37;14.60;55.80
5492;DHT22;2768;53.540;10.224;2022-09-01T02:02:33;14.30;74.60
5492;DHT22;2768;53.540;10.224;2022-09-01T02:08:29;14.50;84.80
5492;DHT22;2768;53.540;10.224;2022-09-01T02:14:23;14.70;73.10
5492;DHT22;2768;53.540;10.224;2022-09-01T02:20:17;14.80;72.80
5492;DHT22;2768;53.540;10.224;2022-09-01T02:26:15;14.30;77.60
5492;DHT22;2768;53.540;10.224;2022-09-01T02:32:12;14.10;85.60
5492;DHT22;2768;53.540;10.224;2022-09-01T02:38:14;14.10;97.70
5492;DHT22;2768;53.540;10.224;2022-09-01T02:44:09;13.90;99.90
5492;DHT22;2768;53.540;10.224;2022-09-01T02:50:04;14.10;99.90
5492;DHT22;2768;53.540;10.224;2022-09-01T02:55:59;14.10;99.90
5492;DHT22;2768;53.540;10.224;2022-09-01T03:01:53;13.90;99.90
5492;DHT22;2768;53.540;10.224;2022-09-01T03:07:47;13.90;99.90
5492;DHT22;2768;53.540;10.224;2022-09-01T03:13:42;13.90;99.90
5492;DHT22;2768;53.540;10.224;2022-09-01T03:19:36;13.80;99.90
5492;DHT22;2768;53.540;10.224;2022-09-01T03:25:36;14.00;99.90
5492;DHT22;2768;53.540;10.224;2022-09-01T03:31:31;13.70;99.90
5492;DHT22;2768;53.540;10.224;2022-09-01T03:37:25;13.60;99.90
5492;DHT22;2768;53.540;10.224;2022-09-01T03:43:20;13.70;99.90
5492;DHT22;2768;53.540;10.224;2022-09-01T03:49:28;13.50;99.90
5492;DHT22;2768;53.540;10.224;2022-09-01T03:55:24;13.90;99.90
5492;DHT22;2768;53.540;10.224;2022-09-01T04:01:19;14.10;99.90
5492;DHT22;2768;53.540;10.224;2022-09-01T04:07:15;14.10;99.90
5492;DHT22;2768;53.540;10.224;2022-09-01T04:13:10;13.70;99.90
5492;DHT22;2768;53.540;10.224;2022-09-01T04:19:06;13.50;99.90
5492;DHT22;2768;53.540;10.224;2022-09-01T04:25:08;14.40;99.90
5492;DHT22;2768;53.540;10.224;2022-09-01T04:31:04;14.30;99.90
5492;DHT22;2768;53.540;10.224;2022-09-01T04:37:00;14.70;99.90
5492;DHT22;2768;53.540;10.224;2022-09-01T04:42:56;15.00;99.90
5492;DHT22;2768;53.540;10.224;2022-09-01T04:48:51;14.90;99.90
5492;DHT22;2768;53.540;10.224;2022-09-01T04:54:45;14.50;99.90
5492;DHT22;2768;53.540;10.224;2022-09-01T05:00:41;14.60;99.90
5492;DHT22;2768;53.540;10.224;2022-09-01T05:06:35;14.40;99.90
5492;DHT22;2768;53.540;10.224;2022-09-01T05:12:30;14.10;99.90
5492;DHT22;2768;53.540;10.224;2022-09-01T05:18:24;14.20;99.90
5492;DHT22;2768;53.540;10.224;2022-09-01T05:24:20;14.20;99.90
5492;DHT22;2768;53.540;10.224;2022-09-01T05:30:14;14.50;99.90
5492;DHT22;2768;53.540;10.224;2022-09-01T05:36:12;14.50;99.90
5492;DHT22;2768;53.540;10.224;2022-09-01T05:42:06;14.90;99.90
5492;DHT22;2768;53.540;10.224;2022-09-01T05:48:02;15.30;99.90
5492;DHT22;2768;53.540;10.224;2022-09-01T05:53:57;15.30;99.90
5492;DHT22;2768;53.540;10.224;2022-09-01T05:59:52;15.20;99.90
5492;DHT22;2768;53.540;10.224;2022-09-01T06:05:49;15.50;99.90
5492;DHT22;2768;53.540;10.224;2022-09-01T06:11:45;15.70;99.90
5492;DHT22;2768;53.540;10.224;2022-09-01T06:17:39;15.80;99.90
5492;DHT22;2768;53.540;10.224;2022-09-01T06:23:32;15.90;99.90
5492;DHT22;2768;53.540;10.224;2022-09-01T06:29:28;16.00;99.90
5492;DHT22;2768;53.540;10.224;2022-09-01T06:35:22;16.10;99.90
5492;DHT22;2768;53.540;10.224;2022-09-01T06:41:22;16.20;99.90
5492;DHT22;2768;53.540;10.224;2022-09-01T06:47:18;16.30;99.90
5492;DHT22;2768;53.540;10.224;2022-09-01T06:53:11;16.40;99.90
5492;DHT22;2768;53.540;10.224;2022-09-01T06:59:27;16.50;99.90
5492;DHT22;2768;53.540;10.224;2022-09-01T07:05:29;16.70;99.90
5492;DHT22;2768;53.540;10.224;2022-09-01T07:11:58;16.80;99.90
5492;DHT22;2768;53.540;10.224;2022-09-01T07:18:14;16.90;99.90
5492;DHT22;2768;53.540;10.224;2022-09-01T07:24:11;17.10;99.90
5492;DHT22;2768;53.540;10.224;2022-09-01T07:30:27;17.20;99.90
5492;DHT22;2768;53.540;10.224;2022-09-01T07:36:23;17.30;99.90
5492;DHT22;2768;53.540;10.224;2022-09-01T07:42:38;17.50;95.60
5492;DHT22;2768;53.540;10.224;2022-09-01T07:49:11;17.60;72.50
5492;DHT22;2768;53.540;10.224;2022-09-01T07:55:25;17.70;38.20
5492;DHT22;2768;53.540;10.224;2022-09-01T08:01:24;17.80;27.20
5492;DHT22;2768;53.540;10.224;2022-09-01T08:07:18;17.90;12.40
5492;DHT22;2768;53.540;10.224;2022-09-01T08:13:11;18.10;1.00
5492;DHT22;2768;53.540;10.224;2022-09-01T08:19:07;18.30;1.00
5492;DHT22;2768;53.540;10.224;2022-09-01T08:25:28;18.30;1.00
5492;DHT22;2768;53.540;10.224;2022-09-01T08:31:23;18.50;1.00
5492;DHT22;2768;53.540;10.224;2022-09-01T08:37:23;18.70;1.00
5492;DHT22;2768;53.540;10.224;2022-09-01T08:43:22;18.70;1.00
5492;DHT22;2768;53.540;10.224;2022-09-01T08:49:23;18.80;1.00
5492;DHT22;2768;53.540;10.224;2022-09-01T08:55:52;18.90;1.00
5492;DHT22;2768;53.540;10.224;2022-09-01T09:01:51;19.00;1.00
5492;DHT22;2768;53.540;10.224;2022-09-01T09:08:06;19.00;1.00
5492;DHT22;2768;53.540;10.224;2022-09-01T09:14:10;19.20;1.00
5492;DHT22;2768;53.540;10.224;2022-09-01T09:20:07;19.40;1.00
5492;DHT22;2768;53.540;10.224;2022-09-01T09:26:00;19.50;1.00
5492;DHT22;2768;53.540;10.224;2022-09-01T09:32:04;19.80;1.00
5492;DHT22;2768;53.540;10.224;2022-09-01T09:38:23;20.00;1.00
5492;DHT22;2768;53.540;10.224;2022-09-01T09:44:25;20.10;1.00
5492;DHT22;2768;53.540;10.224;2022-09-01T09:50:24;20.30;1.00
5492;DHT22;2768;53.540;10.224;2022-09-01T09:56:21;20.40;1.00
5492;DHT22;2768;53.540;10.224;2022-09-01T10:02:25;20.70;1.00
5492;DHT22;2768;53.540;10.224;2022-09-01T10:08:39;20.70;1.00
5492;DHT22;2768;53.540;10.224;2022-09-01T10:14:41;20.90;1.00
5492;DHT22;2768;53.540;10.224;2022-09-01T10:20:48;21.30;1.00
5492;DHT22;2768;53.540;10.224;2022-09-01T10:26:48;21.60;1.00
5492;DHT22;2768;53.540;10.224;2022-09-01T10:32:47;21.50;1.00
5492;DHT22;2768;53.540;10.224;2022-09-01T10:38:47;21.70;1.00
5492;DHT22;2768;53.540;10.224;2022-09-01T10:44:57;21.80;1.00
5492;DHT22;2768;53.540;10.224;2022-09-01T10:51:33;21.70;1.00
5492;DHT22;2768;53.540;10.224;2022-09-01T10:57:29;21.80;1.00
5492;DHT22;2768;53.540;10.224;2022-09-01T11:03:36;22.20;1.00
5492;DHT22;2768;53.540;10.224;2022-09-01T11:09:44;22.70;1.00
5492;DHT22;2768;53.540;10.224;2022-09-01T11:15:42;22.70;1.00
5492;DHT22;2768;53.540;10.224;2022-09-01T11:21:36;22.40;1.00
5492;DHT22;2768;53.540;10.224;2022-09-01T11:27:55;22.40;1.00
5492;DHT22;2768;53.540;10.224;2022-09-01T11:34:06;22.10;1.00
5492;DHT22;2768;53.540;10.224;2022-09-01T11:40:03;22.00;1.00
5492;DHT22;2768;53.540;10.224;2022-09-01T11:46:06;21.90;1.00
5492;DHT22;2768;53.540;10.224;2022-09-01T11:52:04;22.40;1.00
5492;DHT22;2768;53.540;10.224;2022-09-01T11:57:58;23.60;1.00
5492;DHT22;2768;53.540;10.224;2022-09-01T12:03:51;24.50;1.00
5492;DHT22;2768;53.540;10.224;2022-09-01T12:09:47;25.30;1.00
5492;DHT22;2768;53.540;10.224;2022-09-01T12:15:40;25.20;1.00
5492;DHT22;2768;53.540;10.224;2022-09-01T12:22:03;25.70;1.00
5492;DHT22;2768;53.540;10.224;2022-09-01T12:27:58;25.20;1.00
5492;DHT22;2768;53.540;10.224;2022-09-01T12:33:53;25.60;1.00
5492;DHT22;2768;53.540;10.224;2022-09-01T12:39:49;25.90;1.00
5492;DHT22;2768;53.540;10.224;2022-09-01T12:45:46;25.80;1.00
5492;DHT22;2768;53.540;10.224;2022-09-01T12:51:39;26.00;1.00
5492;DHT22;2768;53.540;10.224;2022-09-01T12:57:36;26.00;1.00
5492;DHT22;2768;53.540;10.224;2022-09-01T13:03:33;26.50;1.00
5492;DHT22;2768;53.540;10.224;2022-09-01T13:09:27;26.20;1.00
5492;DHT22;2768;53.540;10.224;2022-09-01T13:15:21;26.80;1.00
5492;DHT22;2768;53.540;10.224;2022-09-01T13:21:15;26.40;1.00
5492;DHT22;2768;53.540;10.224;2022-09-01T13:27:08;26.30;1.00
5492;DHT22;2768;53.540;10.224;2022-09-01T13:33:12;25.70;1.00
5492;DHT22;2768;53.540;10.224;2022-09-01T13:39:12;25.50;1.00
5492;DHT22;2768;53.540;10.224;2022-09-01T13:45:08;25.20;1.00
5492;DHT22;2768;53.540;10.224;2022-09-01T13:51:04;24.80;1.00
5492;DHT22;2768;53.540;10.224;2022-09-01T13:57:09;24.60;1.00
5492;DHT22;2768;53.540;10.224;2022-09-01T14:03:08;25.50;1.00
5492;DHT22;2768;53.540;10.224;2022-09-01T14:09:02;25.10;1.00
5492;DHT22;2768;53.540;10.224;2022-09-01T14:14:58;24.60;1.00
5492;DHT22;2768;53.540;10.224;2022-09-01T14:21:11;24.30;1.00
5492;DHT22;2768;53.540;10.224;2022-09-01T14:27:05;24.70;1.00
5492;DHT22;2768;53.540;10.224;2022-09-01T14:33:00;24.50;1.00
5492;DHT22;2768;53.540;10.224;2022-09-01T14:38:54;23.90;1.00
5492;DHT22;2768;53.540;10.224;2022-09-01T14:44:47;23.60;1.00
5492;DHT22;2768;53.540;10.224;2022-09-01T14:50:44;23.60;1.00
5492;DHT22;2768;53.540;10.224;2022-09-01T14:56:38;23.40;1.00
5492;DHT22;2768;53.540;10.224;2022-09-01T15:02:32;23.40;1.00
5492;DHT22;2768;53.540;10.224;2022-09-01T15:08:27;23.30;1.00
5492;DHT22;2768;53.540;10.224;2022-09-01T15:14:20;23.60;1.00
5492;DHT22;2768;53.540;10.224;2022-09-01T15:20:14;23.60;1.00
5492;DHT22;2768;53.540;10.224;2022-09-01T15:26:26;23.90;1.00
5492;DHT22;2768;53.540;10.224;2022-09-01T15:32:19;24.00;1.00
5492;DHT22;2768;53.540;10.224;2022-09-01T15:38:19;24.10;1.00
5492;DHT22;2768;53.540;10.224;2022-09-01T15:44:16;24.10;1.00
5492;DHT22;2768;53.540;10.224;2022-09-01T15:50:11;23.90;1.00
5492;DHT22;2768;53.540;10.224;2022-09-01T15:56:12;23.80;1.00
5492;DHT22;2768;53.540;10.224;2022-09-01T16:02:07;23.80;1.00
5492;DHT22;2768;53.540;10.224;2022-09-01T16:08:04;23.70;1.00
5492;DHT22;2768;53.540;10.224;2022-09-01T16:14:01;23.60;1.00
5492;DHT22;2768;53.540;10.224;2022-09-01T16:20:00;23.60;1.00
5492;DHT22;2768;53.540;10.224;2022-09-01T16:25:57;23.50;1.00
5492;DHT22;2768;53.540;10.224;2022-09-01T16:31:54;23.30;1.00
5492;DHT22;2768;53.540;10.224;2022-09-01T16:37:54;23.30;1.00
5492;DHT22;2768;53.540;10.224;2022-09-01T16:43:57;23.20;1.00
5492;DHT22;2768;53.540;10.224;2022-09-01T16:49:55;23.10;1.00
5492;DHT22;2768;53.540;10.224;2022-09-01T16:56:01;23.00;1.00
5492;DHT22;2768;53.540;10.224;2022-09-01T17:02:06;22.90;1.00
5492;DHT22;2768;53.540;10.224;2022-09-01T17:08:10;22.80;1.00
5492;DHT22;2768;53.540;10.224;2022-09-01T17:14:09;22.60;1.00
5492;DHT22;2768;53.540;10.224;2022-09-01T17:20:22;22.40;1.00
5492;DHT22;2768;53.540;10.224;2022-09-01T17:26:20;22.30;1.00
5492;DHT22;2768;53.540;10.224;2022-09-01T17:38:46;22.00;1.00
5492;DHT22;2768;53.540;10.224;2022-09-01T17:44:51;22.00;1.00
5492;DHT22;2768;53.540;10.224;2022-09-01T17:50:55;21.70;1.00
5492;DHT22;2768;53.540;10.224;2022-09-01T17:56:58;21.60;1.00
5492;DHT22;2768;53.540;10.224;2022-09-01T18:03:08;21.40;1.00
5492;DHT22;2768;53.540;10.224;2022-09-01T18:09:14;21.20;1.00
5492;DHT22;2768;53.540;10.224;2022-09-01T18:15:11;21.00;1.00
5492;DHT22;2768;53.540;10.224;2022-09-01T18:21:08;21.00;1.00
5492;DHT22;2768;53.540;10.224;2022-09-01T18:27:03;20.80;1.00
5492;DHT22;2768;53.540;10.224;2022-09-01T18:33:03;20.50;1.00
5492;DHT22;2768;53.540;10.224;2022-09-01T18:39:03;20.30;1.00
5492;DHT22;2768;53.540;10.224;2022-09-01T18:45:02;20.20;1.00
5492;DHT22;2768;53.540;10.224;2022-09-01T18:51:04;20.10;1.00
5492;DHT22;2768;53.540;10.224;2022-09-01T18:57:00;19.90;1.00
5492;DHT22;2768;53.540;10.224;2022-09-01T19:03:00;19.80;1.00
5492;DHT22;2768;53.540;10.224;2022-09-01T19:09:06;19.70;1.00
5492;DHT22;2768;53.540;10.224;2022-09-01T19:15:07;19.50;1.00
5492;DHT22;2768;53.540;10.224;2022-09-01T19:21:05;19.20;1.00
5492;DHT22;2768;53.540;10.224;2022-09-01T19:27:08;19.10;1.00
5492;DHT22;2768;53.540;10.224;2022-09-01T19:33:04;19.10;1.00
5492;DHT22;2768;53.540;10.224;2022-09-01T19:38:57;19.00;1.00
5492;DHT22;2768;53.540;10.224;2022-09-01T19:44:58;18.90;1.00
5492;DHT22;2768;53.540;10.224;2022-09-01T19:51:01;19.00;1.00
5492;DHT22;2768;53.540;10.224;2022-09-01T19:57:00;18.70;1.00
5492;DHT22;2768;53.540;10.224;2022-09-01T20:03:01;18.70;1.00
5492;DHT22;2768;53.540;10.224;2022-09-01T20:09:02;18.60;1.00
5492;DHT22;2768;53.540;10.224;2022-09-01T20:15:06;18.40;1.00
5492;DHT22;2768;53.540;10.224;2022-09-01T20:21:07;18.60;1.00
5492;DHT22;2768;53.540;10.224;2022-09-01T20:27:23;18.40;1.00
5492;DHT22;2768;53.540;10.224;2022-09-01T20:33:21;18.30;1.00
5492;DHT22;2768;53.540;10.224;2022-09-01T20:39:24;18.10;1.00
5492;DHT22;2768;53.540;10.224;2022-09-01T20:45:39;18.20;1.00
5492;DHT22;2768;53.540;10.224;2022-09-01T20:51:38;18.20;1.00
5492;DHT22;2768;53.540;10.224;2022-09-01T20:57:41;18.40;1.00
5492;DHT22;2768;53.540;10.224;2022-09-01T21:03:44;18.40;1.00
5492;DHT22;2768;53.540;10.224;2022-09-01T21:09:52;18.40;1.00
5492;DHT22;2768;53.540;10.224;2022-09-01T21:15:56;18.30;1.00
5492;DHT22;2768;53.540;10.224;2022-09-01T21:22:03;18.20;1.00
5492;DHT22;2768;53.540;10.224;2022-09-01T21:27:59;18.20;1.00
5492;DHT22;2768;53.540;10.224;2022-09-01T21:33:54;18.20;1.00
5492;DHT22;2768;53.540;10.224;2022-09-01T21:39:47;18.00;1.00
5492;DHT22;2768;53.540;10.224;2022-09-01T21:45:44;17.90;1.00
5492;DHT22;2768;53.540;10.224;2022-09-01T21:51:39;17.90;1.00
5492;DHT22;2768;53.540;10.224;2022-09-01T21:57:33;17.80;1.00
5492;DHT22;2768;53.540;10.224;2022-09-01T22:03:27;17.80;1.00
5492;DHT22;2768;53.540;10.224;2022-09-01T22:09:22;17.70;1.00
5492;DHT22;2768;53.540;10.224;2022-09-01T22:15:18;17.70;1.00
5492;DHT22;2768;53.540;10.224;2022-09-01T22:21:13;17.60;1.00
5492;DHT22;2768;53.540;10.224;2022-09-01T22:27:08;17.60;1.00
5492;DHT22;2768;53.540;10.224;2022-09-01T22:33:01;17.60;1.00
5492;DHT22;2768;53.540;10.224;2022-09-01T22:38:57;17.30;1.00
5492;DHT22;2768;53.540;10.224;2022-09-01T22:44:52;17.20;1.00
5492;DHT22;2768;53.540;10.224;2022-09-01T22:50:46;17.30;1.00
5492;DHT22;2768;53.540;10.224;2022-09-01T22:56:43;17.20;1.00
5492;DHT22;2768;53.540;10.224;2022-09-01T23:02:38;17.00;1.00
5492;DHT22;2768;53.540;10.224;2022-09-01T23:08:32;17.10;1.00
5492;DHT22;2768;53.540;10.224;2022-09-01T23:14:26;17.20;1.00
5492;DHT22;2768;53.540;10.224;2022-09-01T23:20:21;17.40;1.00
5492;DHT22;2768;53.540;10.224;2022-09-01T23:26:15;17.20;1.00
5492;DHT22;2768;53.540;10.224;2022-09-01T23:32:08;17.00;1.00
5492;DHT22;2768;53.540;10.224;2022-09-01T23:38:03;16.90;1.00
5492;DHT22;2768;53.540;10.224;2022-09-01T23:43:58;16.90;1.00
5492;DHT22;2768;53.540;10.224;2022-09-01T23:49:52;16.70;1.00
5492;DHT22;2768;53.540;10.224;2022-09-01T23:55:50;16.80;1.00
